Time;durP1;ratioP1;P1;durP2;ratioP2;P2;SDS_P1;SDS_P2;PMS_P1;PMS_P2;Temp;Humidity;BMP_temperature;BMP_pressure;BME280_temperature;BME280_humidity;BME280_pressure;Samples;Min_cycle;Max_cycle;Signal;HPM_P1;HPM_P2
2024/03/04 00:00:46;;;;;;;12.30;6.50;;;;;;;0.84;100.00;101113.16;106453;1257;68382;-87
2024/03/04 00:03:23;;;;;;;14.20;7.30;;;;;;;0.83;100.00;101110.47;106501;1257;71445;-88
2024/03/04 00:05:59;;;;;;;15.20;7.30;;;;;;;0.78;100.00;101110.27;106517;1254;61256;-87
2024/03/04 00:08:34;;;;;;;12.70;7.10;;;;;;;0.71;100.00;101108.13;106396;1251;61338;-87
2024/03/04 00:11:11;;;;;;;14.60;7.10;;;;;;;0.63;100.00;101107.87;106254;1251;73764;-87
2024/03/04 00:13:47;;;;;;;14.70;6.70;;;;;;;0.52;100.00;101111.23;106927;1253;67091;-88
2024/03/04 00:16:23;;;;;;;16.60;7.40;;;;;;;0.42;100.00;101112.45;106467;1254;71755;-87
2024/03/04 00:18:58;;;;;;;16.00;7.90;;;;;;;0.29;100.00;101114.13;106522;1254;61262;-89
2024/03/04 00:21:34;;;;;;;13.60;7.10;;;;;;;0.27;100.00;101113.88;106722;1251;61272;-86
2024/03/04 00:24:09;;;;;;;15.90;7.30;;;;;;;0.28;100.00;101113.59;106464;1251;74760;-87
2024/03/04 00:26:44;;;;;;;14.30;6.40;;;;;;;0.33;100.00;101110.06;106667;1251;67351;-86
2024/03/04 00:29:20;;;;;;;11.60;6.90;;;;;;;0.32;100.00;101112.67;106578;1255;72792;-87
2024/03/04 00:31:55;;;;;;;15.50;8.00;;;;;;;0.33;100.00;101113.96;106490;1251;61323;-86
2024/03/04 00:34:32;;;;;;;14.00;6.90;;;;;;;0.31;100.00;101114.11;106367;1252;61298;-88
2024/03/04 00:37:07;;;;;;;12.70;5.90;;;;;;;0.21;100.00;101112.29;106475;1251;73718;-86
2024/03/04 00:39:43;;;;;;;13.70;6.70;;;;;;;0.16;100.00;101117.63;107689;1252;68730;-87
2024/03/04 00:42:18;;;;;;;16.50;7.60;;;;;;;0.20;100.00;101119.27;106330;1254;72780;-87
2024/03/04 00:44:55;;;;;;;12.70;6.80;;;;;;;0.10;100.00;101117.26;106386;1258;61309;-85
2024/03/04 00:47:31;;;;;;;14.60;7.70;;;;;;;0.12;100.00;101121.52;106673;1255;61152;-85
2024/03/04 00:50:10;;;;;;;11.60;6.40;;;;;;;0.12;100.00;101126.70;106752;1257;74657;-87
2024/03/04 00:52:46;;;;;;;14.50;7.10;;;;;;;0.12;100.00;101126.93;106495;1254;68694;-86
2024/03/04 00:55:21;;;;;;;16.80;7.00;;;;;;;0.11;100.00;101122.88;107389;1254;71366;-86
2024/03/04 00:57:55;;;;;;;12.20;6.70;;;;;;;0.12;100.00;101123.38;106626;1254;61340;-86
2024/03/04 01:00:29;;;;;;;15.30;7.60;;;;;;;0.06;100.00;101124.45;106463;1253;61181;-86
2024/03/04 01:03:04;;;;;;;14.80;6.70;;;;;;;0.02;100.00;101119.79;106474;1254;74568;-86
2024/03/04 01:05:38;;;;;;;13.80;6.30;;;;;;;0.08;100.00;101123.02;106602;1256;67182;-86
2024/03/04 01:08:11;;;;;;;12.00;6.40;;;;;;;0.02;100.00;101125.45;106307;1254;72654;-86
2024/03/04 01:10:45;;;;;;;16.30;7.20;;;;;;;0.00;100.00;101127.14;106348;1254;61394;-86
2024/03/04 01:13:20;;;;;;;12.00;6.80;;;;;;;-0.03;100.00;101126.27;106268;1253;61310;-86
2024/03/04 01:15:54;;;;;;;13.90;7.40;;;;;;;-0.06;100.00;101122.44;106654;1257;73423;-86
2024/03/04 01:18:29;;;;;;;11.90;6.70;;;;;;;-0.10;100.00;101123.36;106310;1254;68453;-87
2024/03/04 01:21:03;;;;;;;11.50;6.50;;;;;;;-0.07;100.00;101126.45;106640;1253;71549;-86
2024/03/04 01:23:37;;;;;;;12.90;7.60;;;;;;;-0.06;100.00;101127.83;106344;1251;61500;-88
2024/03/04 01:26:11;;;;;;;13.20;6.80;;;;;;;-0.09;100.00;101128.58;106375;1251;61509;-87
2024/03/04 01:28:49;;;;;;;12.70;6.20;;;;;;;-0.03;100.00;101128.88;106285;1254;73382;-87
2024/03/04 01:31:23;;;;;;;15.20;7.10;;;;;;;-0.03;100.00;101133.34;106520;1256;68663;-89
2024/03/04 01:33:57;;;;;;;13.10;6.90;;;;;;;-0.04;100.00;101133.33;106291;1253;72642;-87
2024/03/04 01:36:31;;;;;;;13.90;7.00;;;;;;;-0.03;100.00;101132.39;106160;1254;233556;-87
2024/03/04 01:39:05;;;;;;;13.50;6.70;;;;;;;-0.06;100.00;101138.11;106909;1254;61299;-87
2024/03/04 01:41:39;;;;;;;18.30;7.70;;;;;;;-0.10;100.00;101142.59;106491;1254;73858;-88
2024/03/04 01:44:13;;;;;;;17.60;7.90;;;;;;;-0.13;100.00;101143.27;106413;1257;67096;-87
2024/03/04 01:46:47;;;;;;;18.70;8.70;;;;;;;-0.19;100.00;101141.20;106413;1254;70730;-88
2024/03/04 01:49:21;;;;;;;16.90;8.20;;;;;;;-0.26;100.00;101139.83;106453;1254;61324;-90
2024/03/04 01:51:55;;;;;;;22.20;9.30;;;;;;;-0.23;100.00;101136.88;106399;1254;61347;-88
2024/03/04 01:54:29;;;;;;;19.60;8.90;;;;;;;-0.24;100.00;101140.71;106885;1251;73382;-87
2024/03/04 01:57:03;;;;;;;19.90;7.90;;;;;;;-0.23;100.00;101140.89;106516;1251;68763;-87
2024/03/04 01:59:37;;;;;;;22.80;9.70;;;;;;;-0.27;100.00;101141.09;106553;1254;72789;-88
2024/03/04 02:02:11;;;;;;;20.80;9.60;;;;;;;-0.35;100.00;101139.02;106418;1254;61273;-87
2024/03/04 02:04:45;;;;;;;24.20;10.40;;;;;;;-0.39;100.00;101141.17;106280;1254;61141;-87
2024/03/04 02:07:19;;;;;;;26.40;10.40;;;;;;;-0.37;100.00;101142.34;106391;1251;73430;-87
2024/03/04 02:09:54;;;;;;;23.50;9.40;;;;;;;-0.31;100.00;101139.44;106356;1255;67481;-89
2024/03/04 02:12:27;;;;;;;15.70;7.00;;;;;;;-0.32;100.00;101138.02;106508;1253;72922;-87
2024/03/04 02:15:02;;;;;;;16.00;6.70;;;;;;;-0.31;100.00;101141.04;106382;1253;61286;-87
2024/03/04 02:17:35;;;;;;;17.80;7.80;;;;;;;-0.30;100.00;101147.79;106475;1254;61177;-89
2024/03/04 02:20:10;;;;;;;16.10;7.40;;;;;;;-0.33;100.00;101150.81;106602;1251;73057;-88
2024/03/04 02:22:44;;;;;;;12.60;6.60;;;;;;;-0.37;100.00;101149.16;106462;1251;68323;-87
2024/03/04 02:25:22;;;;;;;16.90;6.90;;;;;;;-0.38;100.00;101153.98;106365;1254;71620;-90
2024/03/04 02:27:56;;;;;;;15.30;7.60;;;;;;;-0.36;100.00;101156.54;106414;1255;61305;-87
2024/03/04 02:30:31;;;;;;;12.60;6.80;;;;;;;-0.39;100.00;101156.78;106319;1251;61350;-87
2024/03/04 02:33:05;;;;;;;13.60;6.80;;;;;;;-0.34;100.00;101157.41;106182;1251;73079;-87
2024/03/04 02:35:40;;;;;;;13.30;6.80;;;;;;;-0.35;100.00;101161.29;106438;1253;67142;-86
2024/03/04 02:38:13;;;;;;;13.10;6.50;;;;;;;-0.32;100.00;101160.66;107236;1255;72631;-88
2024/03/04 02:40:48;;;;;;;13.70;7.10;;;;;;;-0.34;100.00;101159.66;106339;1254;61250;-86
2024/03/04 02:43:17;;;;;;;10.50;6.60;;;;;;;-0.38;100.00;101162.17;106678;1251;61283;-88
2024/03/04 02:45:52;;;;;;;14.10;7.10;;;;;;;-0.40;100.00;101161.85;106586;1251;73796;-86
2024/03/04 02:48:26;;;;;;;13.80;5.80;;;;;;;-0.47;100.00;101162.85;106284;1251;68505;-88
2024/03/04 02:51:00;;;;;;;16.40;6.30;;;;;;;-0.50;100.00;101161.42;106187;1251;72662;-89
2024/03/04 02:53:34;;;;;;;13.40;6.60;;;;;;;-0.55;100.00;101162.06;106547;1253;61253;-88
2024/03/04 02:56:09;;;;;;;13.10;7.50;;;;;;;-0.55;100.00;101160.81;106483;1254;61211;-86
2024/03/04 02:58:44;;;;;;;13.10;6.50;;;;;;;-0.55;100.00;101161.97;106570;1251;73811;-88
2024/03/04 03:01:18;;;;;;;14.50;7.00;;;;;;;-0.58;100.00;101166.57;106353;1251;67111;-86
2024/03/04 03:03:52;;;;;;;14.70;7.40;;;;;;;-0.56;100.00;101164.60;106228;1253;71420;-87
2024/03/04 03:06:29;;;;;;;14.00;6.80;;;;;;;-0.53;100.00;101161.71;106812;1253;61372;-87
2024/03/04 03:09:05;;;;;;;16.70;7.60;;;;;;;-0.51;100.00;101160.30;106307;1251;61321;-87
2024/03/04 03:11:41;;;;;;;14.00;7.00;;;;;;;-0.48;100.00;101162.14;106577;1256;75559;-88
2024/03/04 03:14:15;;;;;;;14.10;6.70;;;;;;;-0.49;100.00;101158.30;106464;1251;68355;-87
2024/03/04 03:16:49;;;;;;;14.20;7.70;;;;;;;-0.51;100.00;101162.31;106918;1254;71115;-87
2024/03/04 03:19:24;;;;;;;12.80;6.90;;;;;;;-0.48;100.00;101159.20;106399;1253;61404;-87
2024/03/04 03:21:58;;;;;;;16.20;7.50;;;;;;;-0.48;100.00;101159.48;106481;1254;61260;-88
2024/03/04 03:24:32;;;;;;;15.90;7.10;;;;;;;-0.48;100.00;101158.17;106388;1253;74197;-87
2024/03/04 03:27:06;;;;;;;15.30;7.60;;;;;;;-0.49;100.00;101162.96;106076;1251;68717;-87
2024/03/04 03:29:40;;;;;;;14.30;7.70;;;;;;;-0.53;100.00;101165.64;106203;1255;73087;-87
2024/03/04 03:32:14;;;;;;;16.00;8.00;;;;;;;-0.50;100.00;101173.82;106309;1257;61576;-89
2024/03/04 03:34:48;;;;;;;16.70;8.80;;;;;;;-0.44;100.00;101171.69;106437;1253;61224;-87
2024/03/04 03:37:21;;;;;;;12.20;6.50;;;;;;;-0.36;100.00;101173.17;106650;1251;73402;-91
2024/03/04 03:39:55;;;;;;;13.50;7.00;;;;;;;-0.35;100.00;101173.64;106254;1253;68465;-90
2024/03/04 03:42:23;;;;;;;11.90;6.80;;;;;;;-0.36;100.00;101173.34;106483;1252;71418;-87
2024/03/04 03:44:51;;;;;;;12.20;6.70;;;;;;;-0.38;100.00;101173.53;106199;1255;61369;-86
2024/03/04 03:47:25;;;;;;;13.70;6.90;;;;;;;-0.37;100.00;101173.87;106416;1251;61352;-90
2024/03/04 03:50:00;;;;;;;17.90;7.80;;;;;;;-0.42;100.00;101168.77;106280;1257;74705;-91
2024/03/04 03:52:34;;;;;;;13.80;7.10;;;;;;;-0.47;100.00;101170.88;106344;1251;68381;-86
2024/03/04 03:55:08;;;;;;;16.20;7.70;;;;;;;-0.52;100.00;101175.61;106763;1253;71430;-86
2024/03/04 03:57:44;;;;;;;14.00;7.20;;;;;;;-0.55;100.00;101177.02;106567;1251;61270;-86
2024/03/04 04:00:30;;;;;;;13.40;7.40;;;;;;;-0.57;100.00;101178.02;106312;1256;61233;-90
2024/03/04 04:03:06;;;;;;;16.40;8.10;;;;;;;-0.59;100.00;101171.14;106362;1251;74143;-90
2024/03/04 04:05:40;;;;;;;16.00;7.80;;;;;;;-0.61;100.00;101172.48;106415;1256;67436;-87
2024/03/04 04:08:14;;;;;;;17.80;8.40;;;;;;;-0.64;100.00;101178.56;106146;1257;72692;-87
2024/03/04 04:10:48;;;;;;;16.70;7.40;;;;;;;-0.62;100.00;101184.11;106555;1253;61420;-86
2024/03/04 04:13:22;;;;;;;14.80;8.40;;;;;;;-0.62;100.00;101183.03;106445;1251;61100;-89
2024/03/04 04:15:56;;;;;;;17.80;8.30;;;;;;;-0.63;100.00;101186.90;106463;1257;74584;-89
2024/03/04 04:18:31;;;;;;;17.70;8.10;;;;;;;-0.66;100.00;101184.52;106655;1251;68581;-89
2024/03/04 04:21:07;;;;;;;14.50;7.70;;;;;;;-0.70;100.00;101183.04;106266;1254;72658;-87
2024/03/04 04:23:41;;;;;;;17.60;7.70;;;;;;;-0.76;100.00;101184.18;106419;1251;61366;-87
2024/03/04 04:26:25;;;;;;;17.80;8.30;;;;;;;-0.76;100.00;101185.96;107071;1253;61111;-91
2024/03/04 04:28:58;;;;;;;18.80;9.00;;;;;;;-0.74;100.00;101186.91;106685;1252;73420;-90
2024/03/04 04:31:32;;;;;;;21.70;9.50;;;;;;;-0.82;100.00;101188.11;106691;1253;67788;-90
2024/03/04 04:34:07;;;;;;;17.40;8.90;;;;;;;-0.81;100.00;101189.15;106582;1251;72674;-92
2024/03/04 04:36:51;;;;;;;17.70;8.30;;;;;;;-0.80;100.00;101195.23;106745;1251;61358;-91
2024/03/04 04:39:25;;;;;;;18.80;8.60;;;;;;;-0.72;100.00;101195.27;106494;1251;61180;-87
2024/03/04 04:41:59;;;;;;;18.30;8.90;;;;;;;-0.67;100.00;101195.54;106352;1256;73675;-87
2024/03/04 04:44:33;;;;;;;17.90;9.00;;;;;;;-0.66;100.00;101201.16;106628;1254;68725;-87
2024/03/04 04:47:07;;;;;;;15.70;7.10;;;;;;;-0.68;100.00;101203.29;106539;1251;72748;-87
2024/03/04 04:49:42;;;;;;;18.70;9.00;;;;;;;-0.67;100.00;101203.44;106402;1253;61348;-91
2024/03/04 04:52:16;;;;;;;19.40;8.90;;;;;;;-0.65;100.00;101207.66;106385;1252;61343;-87
2024/03/04 04:54:50;;;;;;;17.90;9.50;;;;;;;-0.59;100.00;101201.98;106762;1251;74685;-91
2024/03/04 04:57:25;;;;;;;15.50;8.40;;;;;;;-0.57;100.00;101199.88;107085;1251;68583;-90
2024/03/04 04:59:59;;;;;;;17.60;8.30;;;;;;;-0.58;100.00;101201.50;106403;1254;71938;-88
2024/03/04 05:02:33;;;;;;;14.50;7.40;;;;;;;-0.61;100.00;101204.06;106593;1257;61285;-89
2024/03/04 05:05:08;;;;;;;15.70;8.10;;;;;;;-0.61;100.00;101206.54;106447;1251;61349;-88
2024/03/04 05:07:42;;;;;;;16.60;8.30;;;;;;;-0.63;100.00;101202.31;106580;1253;73360;-87
2024/03/04 05:10:16;;;;;;;15.80;8.20;;;;;;;-0.62;100.00;101204.84;106358;1256;68741;-93
2024/03/04 05:12:50;;;;;;;15.80;8.30;;;;;;;-0.59;100.00;101206.04;106621;1252;71426;-92
2024/03/04 05:15:25;;;;;;;16.30;9.00;;;;;;;-0.49;100.00;101205.05;106507;1255;61263;-91
2024/03/04 05:17:59;;;;;;;22.30;11.60;;;;;;;-0.37;100.00;101206.43;106650;1251;61281;-91
2024/03/04 05:20:33;;;;;;;31.20;15.90;;;;;;;-0.26;100.00;101211.77;106693;1251;73437;-91
2024/03/04 05:23:27;;;;;;;29.10;13.90;;;;;;;-0.20;100.00;101209.55;106304;1258;68432;-91
2024/03/04 05:26:00;;;;;;;34.80;16.20;;;;;;;-0.09;100.00;101211.33;106470;1254;71450;-90
2024/03/04 05:28:35;;;;;;;35.30;14.20;;;;;;;0.08;100.00;101211.63;106356;1254;61346;-89
2024/03/04 05:31:08;;;;;;;37.30;15.30;;;;;;;0.28;100.00;101213.09;106511;1257;61427;-89
2024/03/04 05:33:47;;;;;;;39.20;17.00;;;;;;;0.44;100.00;101209.10;106613;1253;73514;-89
2024/03/04 05:36:27;;;;;;;31.70;13.50;;;;;;;0.62;100.00;101207.30;106366;1254;68540;-89
2024/03/04 05:39:09;;;;;;;40.90;17.40;;;;;;;0.85;100.00;101205.14;106453;1253;71427;-88
2024/03/04 05:41:50;;;;;;;33.90;16.40;;;;;;;1.07;100.00;101207.85;106378;1253;61259;-88
2024/03/04 05:44:30;;;;;;;37.00;17.70;;;;;;;1.31;100.00;101204.75;106649;1254;61191;-89
2024/03/04 05:47:10;;;;;;;90.40;30.60;;;;;;;1.52;100.00;101202.69;107847;1253;73388;-88
2024/03/04 05:49:50;;;;;;;75.80;29.00;;;;;;;1.77;100.00;101202.32;107133;1256;68344;-88
2024/03/04 05:52:30;;;;;;;57.70;21.90;;;;;;;2.03;100.00;101203.25;106750;1252;72686;-89
2024/03/04 05:55:11;;;;;;;29.60;14.70;;;;;;;2.27;100.00;101198.65;106775;1253;61300;-87
2024/03/04 05:57:51;;;;;;;22.80;12.70;;;;;;;2.52;100.00;101197.54;107003;1251;61326;-87
2024/03/04 06:00:32;;;;;;;24.90;13.30;;;;;;;2.83;100.00;101199.29;109315;1251;74121;-89
2024/03/04 06:03:12;;;;;;;19.40;11.80;;;;;;;3.18;100.00;101200.76;109113;1251;68384;-89
2024/03/04 06:05:40;;;;;;;19.40;10.70;;;;;;;3.41;100.00;101199.30;107069;1253;74912;-87
2024/03/04 06:08:20;;;;;;;19.50;10.80;;;;;;;3.68;100.00;101198.02;106775;1252;61369;-89
2024/03/04 06:10:59;;;;;;;20.20;11.50;;;;;;;3.90;100.00;101193.52;106950;1251;61382;-89
2024/03/04 06:13:39;;;;;;;21.20;10.60;;;;;;;4.15;100.00;101191.05;106677;1251;75076;-88
2024/03/04 06:16:20;;;;;;;22.80;10.70;;;;;;;4.36;100.00;101185.95;106542;1257;71103;-88
2024/03/04 06:19:00;;;;;;;19.90;10.10;;;;;;;4.54;100.00;101189.05;106294;1255;71402;-88
2024/03/04 06:21:39;;;;;;;18.80;9.70;;;;;;;4.71;100.00;101188.08;106492;1251;61285;-88
2024/03/04 06:24:19;;;;;;;16.50;9.80;;;;;;;4.86;100.00;101183.80;106390;1253;61240;-88
2024/03/04 06:26:59;;;;;;;20.00;10.30;;;;;;;5.01;100.00;101185.95;106364;1251;74556;-88
2024/03/04 06:29:39;;;;;;;21.00;11.20;;;;;;;5.15;100.00;101186.59;106469;1251;69011;-88
2024/03/04 06:32:19;;;;;;;21.60;10.60;;;;;;;5.30;100.00;101180.88;106478;1256;71410;-87
2024/03/04 06:34:59;;;;;;;13.90;9.30;;;;;;;5.41;100.00;101184.20;106363;1254;61273;-89
2024/03/04 06:37:39;;;;;;;19.20;10.40;;;;;;;5.51;100.00;101184.41;106414;1252;61264;-88
2024/03/04 06:40:20;;;;;;;18.50;10.30;;;;;;;5.68;100.00;101185.29;107859;1255;74581;-89
2024/03/04 06:42:59;;;;;;;16.20;9.90;;;;;;;5.79;100.00;101187.72;106308;1251;66528;-88
2024/03/04 06:45:39;;;;;;;17.10;10.10;;;;;;;5.85;100.00;101189.02;106493;1251;72657;-90
2024/03/04 06:48:19;;;;;;;28.50;10.70;;;;;;;5.92;100.00;101186.24;106330;1253;61324;-88
2024/03/04 06:50:59;;;;;;;16.00;9.20;;;;;;;6.06;100.00;101189.62;106208;1251;61264;-88
2024/03/04 06:53:39;;;;;;;20.10;9.30;;;;;;;6.19;100.00;101186.30;106376;1252;73421;-88
2024/03/04 06:56:21;;;;;;;16.60;9.20;;;;;;;6.28;100.00;101183.56;106196;1257;67150;-90
2024/03/04 06:59:01;;;;;;;15.20;8.90;;;;;;;6.37;100.00;101184.77;106492;1251;72685;-90
2024/03/04 07:01:41;;;;;;;17.10;9.70;;;;;;;6.48;100.00;101186.01;106322;1253;61235;-89
2024/03/04 07:04:21;;;;;;;15.70;8.50;;;;;;;6.67;100.00;101186.77;107218;1257;61180;-87
2024/03/04 07:07:02;;;;;;;18.40;9.60;;;;;;;6.78;100.00;101184.11;106628;1256;75481;-85
2024/03/04 07:09:41;;;;;;;15.30;8.50;;;;;;;6.89;100.00;101186.69;106407;1257;69920;-87
2024/03/04 07:12:22;;;;;;;19.10;8.90;;;;;;;6.90;100.00;101185.95;106393;1256;71444;-87
2024/03/04 07:15:02;;;;;;;23.00;9.80;;;;;;;7.01;100.00;101184.04;106375;1253;61295;-86
2024/03/04 07:17:44;;;;;;;16.10;8.60;;;;;;;7.11;100.00;101185.77;106525;1257;61341;-85
2024/03/04 07:20:24;;;;;;;14.60;9.10;;;;;;;7.25;100.00;101188.52;107087;1253;76975;-87
2024/03/04 07:23:04;;;;;;;14.00;8.10;;;;;;;7.35;100.00;101184.92;106366;1253;72163;-86
2024/03/04 07:25:44;;;;;;;14.20;7.90;;;;;;;7.36;100.00;101183.86;106417;1253;74691;-87
2024/03/04 07:28:24;;;;;;;16.60;9.30;;;;;;;7.44;100.00;101178.64;106516;1251;61578;-86
2024/03/04 07:31:04;;;;;;;18.00;8.70;;;;;;;7.48;100.00;101179.32;106503;1251;61146;-86
2024/03/04 07:33:44;;;;;;;12.90;7.60;;;;;;;7.60;100.00;101181.08;106443;1252;75548;-85
2024/03/04 07:36:25;;;;;;;12.60;7.50;;;;;;;7.64;100.00;101184.09;106748;1256;68452;-86
2024/03/04 07:39:05;;;;;;;14.70;7.10;;;;;;;7.71;100.00;101186.09;106443;1253;72711;-87
2024/03/04 07:41:45;;;;;;;12.40;7.00;;;;;;;7.76;98.63;101191.19;106389;1253;61864;-87
2024/03/04 07:44:25;;;;;;;12.80;7.60;;;;;;;7.76;96.82;101190.60;106341;1251;62944;-86
2024/03/04 07:47:05;;;;;;;12.70;7.80;;;;;;;7.78;97.12;101192.91;107394;1251;75104;-85
2024/03/04 07:49:45;;;;;;;15.70;7.90;;;;;;;7.89;96.89;101193.95;106322;1251;69998;-87
2024/03/04 07:52:25;;;;;;;15.50;7.90;;;;;;;7.97;95.69;101191.92;106340;1255;73689;-85
2024/03/04 07:55:08;;;;;;;14.60;8.20;;;;;;;8.10;93.72;101190.04;106359;1257;61963;-85
2024/03/04 07:57:45;;;;;;;13.00;8.10;;;;;;;8.22;92.22;101185.67;106427;1251;61163;-88
2024/03/04 08:00:19;;;;;;;14.70;7.60;;;;;;;8.29;89.65;101186.17;106163;1253;73384;-85
2024/03/04 08:02:59;;;;;;;14.70;7.60;;;;;;;8.30;89.45;101182.42;106770;1253;67683;-87
2024/03/04 08:05:39;;;;;;;12.60;7.20;;;;;;;8.36;85.43;101183.73;106298;1253;73246;-87
2024/03/04 08:08:19;;;;;;;11.10;7.00;;;;;;;8.32;85.06;101180.83;106464;1251;61596;-86
2024/03/04 08:11:02;;;;;;;14.90;7.60;;;;;;;8.28;84.90;101185.77;106270;1258;61632;-89
2024/03/04 08:13:42;;;;;;;14.70;7.20;;;;;;;8.25;84.48;101188.06;106309;1252;75629;-87
2024/03/04 08:16:16;;;;;;;13.50;7.70;;;;;;;8.22;82.86;101188.02;106788;1253;69473;-87
2024/03/04 08:18:56;;;;;;;13.50;7.10;;;;;;;8.21;83.35;101182.55;106459;1253;73248;-84
2024/03/04 08:21:37;;;;;;;13.50;7.70;;;;;;;8.23;81.34;101185.02;106433;1253;61411;-86
2024/03/04 08:24:17;;;;;;;14.10;7.10;;;;;;;8.26;81.15;101183.39;106452;1256;61551;-85
2024/03/04 08:26:56;;;;;;;13.40;7.60;;;;;;;8.31;80.47;101179.88;106560;1253;76964;-87
2024/03/04 08:29:36;;;;;;;14.70;7.20;;;;;;;8.31;80.52;101170.95;106385;1253;71126;-86
2024/03/04 08:32:11;;;;;;;12.20;7.00;;;;;;;8.34;82.10;101170.30;106526;1253;74692;-86
2024/03/04 08:34:45;;;;;;;10.20;6.80;;;;;;;8.45;81.43;101169.70;106424;1253;61376;-86
2024/03/04 08:37:27;;;;;;;15.70;8.10;;;;;;;8.50;81.99;101173.03;106429;1256;61475;-86
2024/03/04 08:40:07;;;;;;;14.80;7.90;;;;;;;8.56;81.77;101174.39;106412;1253;75739;-86
2024/03/04 08:42:47;;;;;;;14.60;7.20;;;;;;;8.60;80.50;101173.80;106369;1257;69874;-86
2024/03/04 08:45:27;;;;;;;15.20;8.00;;;;;;;8.58;79.46;101174.09;106718;1253;73591;-87
2024/03/04 08:48:02;;;;;;;13.90;8.20;;;;;;;8.51;78.86;101175.45;106330;1253;61449;-87
2024/03/04 08:50:36;;;;;;;12.80;7.70;;;;;;;8.39;81.59;101178.61;106481;1251;61169;-87
2024/03/04 08:53:16;;;;;;;12.10;6.80;;;;;;;8.33;82.49;101177.70;106380;1253;76630;-84
2024/03/04 08:55:56;;;;;;;13.40;6.90;;;;;;;8.36;80.90;101178.05;106482;1253;69951;-88
2024/03/04 08:58:37;;;;;;;11.60;7.00;;;;;;;8.28;80.69;101176.62;106296;1253;75026;-86
2024/03/04 09:01:21;;;;;;;13.90;7.80;;;;;;;8.31;80.46;101177.54;106520;1253;61698;-86
2024/03/04 09:04:01;;;;;;;16.60;7.90;;;;;;;8.34;79.38;101176.79;106457;1253;61356;-87
2024/03/04 09:06:35;;;;;;;12.00;7.20;;;;;;;8.38;79.41;101174.33;106447;1253;74596;-89
2024/03/04 09:09:13;;;;;;;12.50;7.50;;;;;;;8.38;80.73;101172.13;106460;1253;70660;-88
2024/03/04 09:11:53;;;;;;;16.40;6.90;;;;;;;8.45;82.35;101170.35;106371;1253;74992;-87
2024/03/04 09:14:33;;;;;;;14.00;7.50;;;;;;;8.54;78.92;101170.92;106583;1252;62402;-88
2024/03/04 09:17:13;;;;;;;12.90;7.50;;;;;;;8.58;76.05;101171.10;106548;1258;61338;-86
2024/03/04 09:19:53;;;;;;;12.40;7.30;;;;;;;8.55;75.69;101170.01;106501;1251;76170;-87
2024/03/04 09:22:31;;;;;;;15.60;7.30;;;;;;;8.58;76.82;101167.29;106564;1251;70620;-86
2024/03/04 09:25:05;;;;;;;14.20;7.30;;;;;;;8.60;77.07;101167.15;106598;1252;73948;-88
2024/03/04 09:27:49;;;;;;;12.80;7.50;;;;;;;8.62;77.80;101164.35;106492;1251;61263;-86
2024/03/04 09:30:29;;;;;;;13.50;7.30;;;;;;;8.64;76.08;101167.15;106263;1256;61183;-85
2024/03/04 17:35:42;;;;;;;28.70;13.50;;;;;;;4.27;100.00;101008.20;106776;1258;70094;-82
2024/03/04 17:38:18;;;;;;;34.50;16.50;;;;;;;4.20;100.00;101004.98;106741;1254;76158;-84
2024/03/04 17:40:58;;;;;;;35.00;16.70;;;;;;;4.15;100.00;101008.70;107471;1259;61377;-83
2024/03/04 17:43:38;;;;;;;46.70;16.40;;;;;;;4.14;100.00;101008.17;106884;1258;61258;-89
2024/03/04 17:46:12;;;;;;;40.60;16.50;;;;;;;4.09;100.00;101007.30;106931;1256;76932;-87
2024/03/04 17:48:46;;;;;;;33.90;16.50;;;;;;;4.01;100.00;101008.20;107007;1253;68833;-87
2024/03/04 17:51:26;;;;;;;37.90;15.40;;;;;;;3.94;100.00;101007.06;107381;1251;75300;-82
2024/03/04 17:54:06;;;;;;;40.90;17.60;;;;;;;3.88;100.00;101007.37;107047;1254;62009;-88
2024/03/04 17:56:40;;;;;;;41.60;17.70;;;;;;;3.90;100.00;101004.86;107397;1256;61855;-87
2024/03/04 17:59:20;;;;;;;41.40;18.50;;;;;;;3.82;100.00;101002.68;107038;1257;76515;-82
2024/03/04 18:02:02;;;;;;;44.10;20.30;;;;;;;3.75;100.00;101002.40;107034;1254;70319;-87
2024/03/04 18:04:43;;;;;;;41.30;19.80;;;;;;;3.72;100.00;101000.44;107169;1254;74059;-88
2024/03/04 18:07:23;;;;;;;41.80;18.60;;;;;;;3.69;100.00;100999.00;106994;1254;62966;-82
2024/03/04 18:09:51;;;;;;;31.00;16.40;;;;;;;3.64;100.00;101002.16;106621;1254;62190;-83
2024/03/04 18:12:31;;;;;;;36.10;17.20;;;;;;;3.62;100.00;101000.02;106811;1259;76077;-83
2024/03/04 18:15:12;;;;;;;39.10;17.90;;;;;;;3.56;100.00;101003.02;106670;1254;69670;-89
2024/03/04 18:17:46;;;;;;;34.30;17.70;;;;;;;3.46;100.00;101001.42;106969;1254;76279;-89
2024/03/04 18:20:20;;;;;;;32.00;15.50;;;;;;;3.33;100.00;101003.80;106546;1257;61253;-83
2024/03/04 18:23:00;;;;;;;35.20;16.30;;;;;;;3.19;100.00;101000.35;106277;1253;61376;-82
2024/03/04 18:25:41;;;;;;;131.20;27.10;;;;;;;3.16;100.00;101000.25;106632;1256;75593;-83
2024/03/04 18:28:22;;;;;;;53.10;18.00;;;;;;;3.20;100.00;101000.05;106579;1252;69526;-82
2024/03/04 18:30:56;;;;;;;50.00;19.00;;;;;;;3.15;100.00;100999.88;106593;1255;75053;-88
2024/03/04 18:33:30;;;;;;;55.70;22.10;;;;;;;3.12;100.00;100997.73;107011;1257;61292;-87
2024/03/04 18:36:12;;;;;;;72.10;20.90;;;;;;;3.03;100.00;101000.02;107057;1256;61035;-83
2024/03/04 18:38:53;;;;;;;52.00;20.50;;;;;;;2.92;100.00;101003.65;106375;1254;74631;-87
2024/03/04 18:41:27;;;;;;;54.20;20.40;;;;;;;2.81;100.00;101003.66;106575;1254;69398;-82
2024/03/04 18:44:02;;;;;;;51.50;20.20;;;;;;;2.86;100.00;101002.11;106350;1255;73750;-87
2024/03/04 18:46:43;;;;;;;55.10;24.60;;;;;;;2.85;100.00;101001.40;106573;1251;61228;-83
2024/03/04 18:49:17;;;;;;;56.40;25.40;;;;;;;2.75;100.00;101001.16;106871;1251;61475;-85
2024/03/04 18:51:52;;;;;;;50.60;24.60;;;;;;;2.67;100.00;101006.17;106513;1253;76682;-88
2024/03/04 18:54:20;;;;;;;77.70;30.90;;;;;;;2.67;100.00;100998.49;106526;1266;69844;-89
2024/03/04 18:56:54;;;;;;;64.40;27.80;;;;;;;2.68;100.00;100996.70;106253;1258;74664;-83
2024/03/04 18:59:28;;;;;;;75.40;30.60;;;;;;;2.76;100.00;100999.33;106388;1255;62855;-88
2024/03/04 19:01:56;;;;;;;93.40;34.90;;;;;;;2.74;100.00;101000.16;106460;1255;62139;-87
2024/03/04 19:04:30;;;;;;;90.10;36.50;;;;;;;2.94;100.00;100999.83;106413;1257;76734;-88
2024/03/04 19:07:04;;;;;;;74.50;28.80;;;;;;;2.98;100.00;100996.20;106504;1251;70102;-88
2024/03/04 19:09:38;;;;;;;71.30;29.80;;;;;;;2.89;100.00;100997.40;106378;1254;74416;-83
2024/03/04 19:12:06;;;;;;;116.00;30.90;;;;;;;2.89;100.00;100995.54;106468;1251;63227;-83
2024/03/04 19:14:41;;;;;;;78.90;30.10;;;;;;;2.91;100.00;100991.65;106300;1257;61269;-83
2024/03/04 19:17:15;;;;;;;51.20;21.80;;;;;;;2.90;100.00;100992.48;106672;1251;75650;-84
2024/03/04 19:19:49;;;;;;;40.40;21.40;;;;;;;2.88;100.00;100994.66;106410;1256;70926;-87
2024/03/04 19:22:17;;;;;;;44.10;24.50;;;;;;;2.85;100.00;100991.19;106424;1254;74215;-87
2024/03/04 19:24:51;;;;;;;53.20;28.90;;;;;;;2.86;100.00;100992.18;106385;1254;62875;-83
2024/03/04 19:27:25;;;;;;;42.10;23.70;;;;;;;2.85;100.00;100991.60;106346;1251;61180;-89
2024/03/04 19:30:00;;;;;;;80.60;36.30;;;;;;;2.84;100.00;100994.77;106483;1257;76589;-88
2024/03/04 19:32:28;;;;;;;97.10;44.30;;;;;;;2.79;100.00;100994.59;106558;1256;70576;-87
2024/03/04 19:35:02;;;;;;;73.40;36.60;;;;;;;2.79;100.00;100990.73;106575;1254;75060;-87
2024/03/04 19:37:37;;;;;;;58.90;30.50;;;;;;;2.91;100.00;100988.74;106464;1254;62548;-88
2024/03/04 19:40:12;;;;;;;64.40;29.60;;;;;;;2.97;100.00;100989.30;106539;1257;61173;-88
2024/03/04 19:42:40;;;;;;;57.10;27.70;;;;;;;2.94;100.00;100991.81;106465;1254;76942;-83
2024/03/04 19:45:15;;;;;;;67.20;33.10;;;;;;;2.95;100.00;100993.70;106413;1253;70728;-89
2024/03/04 19:47:50;;;;;;;60.10;29.70;;;;;;;2.92;100.00;100993.52;106687;1253;74271;-83